sensor_id;sensor_type;location;lat;lon;timestamp;P1;durP1;ratioP1;P2;durP2;ratioP2
40339;SDS011;26044;50.864;20.658;2022-08-21T00:01:49;14.43;;;5.63;;
40339;SDS011;26044;50.864;20.658;2022-08-21T00:04:16;17.48;;;6.43;;
40339;SDS011;26044;50.864;20.658;2022-08-21T00:06:47;16.92;;;6.07;;
40339;SDS011;26044;50.864;20.658;2022-08-21T00:09:15;17.70;;;6.35;;
40339;SDS011;26044;50.864;20.658;2022-08-21T00:11:42;14.95;;;6.57;;
40339;SDS011;26044;50.864;20.658;2022-08-21T00:14:09;15.48;;;6.63;;
40339;SDS011;26044;50.864;20.658;2022-08-21T00:16:36;16.60;;;6.70;;
40339;SDS011;26044;50.864;20.658;2022-08-21T00:19:05;16.35;;;6.63;;
40339;SDS011;26044;50.864;20.658;2022-08-21T00:21:33;15.18;;;6.13;;
40339;SDS011;26044;50.864;20.658;2022-08-21T00:24:00;15.20;;;5.90;;
40339;SDS011;26044;50.864;20.658;2022-08-21T00:26:27;17.55;;;6.68;;
40339;SDS011;26044;50.864;20.658;2022-08-21T00:28:54;18.63;;;6.57;;
40339;SDS011;26044;50.864;20.658;2022-08-21T00:31:24;16.40;;;6.25;;
40339;SDS011;26044;50.864;20.658;2022-08-21T00:33:51;15.98;;;6.60;;
40339;SDS011;26044;50.864;20.658;2022-08-21T00:36:26;16.90;;;6.25;;
40339;SDS011;26044;50.864;20.658;2022-08-21T00:38:53;16.58;;;6.38;;
40339;SDS011;26044;50.864;20.658;2022-08-21T00:41:20;13.95;;;6.18;;
40339;SDS011;26044;50.864;20.658;2022-08-21T00:44:04;14.82;;;5.68;;
40339;SDS011;26044;50.864;20.658;2022-08-21T00:46:36;15.50;;;5.53;;
40339;SDS011;26044;50.864;20.658;2022-08-21T00:49:04;13.68;;;5.38;;
40339;SDS011;26044;50.864;20.658;2022-08-21T00:51:33;12.77;;;5.95;;
40339;SDS011;26044;50.864;20.658;2022-08-21T00:54:13;12.25;;;5.78;;
40339;SDS011;26044;50.864;20.658;2022-08-21T00:56:44;15.43;;;6.03;;
40339;SDS011;26044;50.864;20.658;2022-08-21T00:59:14;16.55;;;6.18;;
40339;SDS011;26044;50.864;20.658;2022-08-21T01:01:43;20.92;;;7.05;;
40339;SDS011;26044;50.864;20.658;2022-08-21T01:04:11;14.73;;;6.05;;
40339;SDS011;26044;50.864;20.658;2022-08-21T01:06:39;13.32;;;5.68;;
40339;SDS011;26044;50.864;20.658;2022-08-21T01:09:06;15.45;;;5.75;;
40339;SDS011;26044;50.864;20.658;2022-08-21T01:11:33;12.75;;;5.30;;
40339;SDS011;26044;50.864;20.658;2022-08-21T01:14:00;15.88;;;5.50;;
40339;SDS011;26044;50.864;20.658;2022-08-21T01:16:27;13.88;;;5.63;;
40339;SDS011;26044;50.864;20.658;2022-08-21T01:18:55;15.80;;;5.55;;
40339;SDS011;26044;50.864;20.658;2022-08-21T01:21:23;14.75;;;5.53;;
40339;SDS011;26044;50.864;20.658;2022-08-21T01:23:54;14.95;;;5.47;;
40339;SDS011;26044;50.864;20.658;2022-08-21T01:26:25;14.60;;;6.47;;
40339;SDS011;26044;50.864;20.658;2022-08-21T01:31:31;16.67;;;5.50;;
40339;SDS011;26044;50.864;20.658;2022-08-21T01:33:59;15.90;;;5.70;;
40339;SDS011;26044;50.864;20.658;2022-08-21T01:36:26;13.18;;;5.43;;
40339;SDS011;26044;50.864;20.658;2022-08-21T01:38:53;14.05;;;5.70;;
40339;SDS011;26044;50.864;20.658;2022-08-21T01:41:20;16.15;;;6.00;;
40339;SDS011;26044;50.864;20.658;2022-08-21T01:43:47;14.10;;;5.50;;
40339;SDS011;26044;50.864;20.658;2022-08-21T01:46:14;14.40;;;5.20;;
40339;SDS011;26044;50.864;20.658;2022-08-21T01:48:42;15.27;;;5.72;;
40339;SDS011;26044;50.864;20.658;2022-08-21T01:51:09;14.35;;;5.45;;
40339;SDS011;26044;50.864;20.658;2022-08-21T01:53:36;14.23;;;5.70;;
40339;SDS011;26044;50.864;20.658;2022-08-21T01:56:04;13.35;;;5.47;;
40339;SDS011;26044;50.864;20.658;2022-08-21T01:58:38;13.75;;;5.47;;
40339;SDS011;26044;50.864;20.658;2022-08-21T02:01:07;13.60;;;5.68;;
40339;SDS011;26044;50.864;20.658;2022-08-21T02:03:34;17.73;;;5.80;;
40339;SDS011;26044;50.864;20.658;2022-08-21T02:06:02;13.73;;;5.20;;
40339;SDS011;26044;50.864;20.658;2022-08-21T02:08:30;15.48;;;5.97;;
40339;SDS011;26044;50.864;20.658;2022-08-21T02:10:57;12.60;;;5.72;;
40339;SDS011;26044;50.864;20.658;2022-08-21T02:13:24;15.13;;;5.60;;
40339;SDS011;26044;50.864;20.658;2022-08-21T02:15:51;14.02;;;5.55;;
40339;SDS011;26044;50.864;20.658;2022-08-21T02:18:17;13.55;;;5.35;;
40339;SDS011;26044;50.864;20.658;2022-08-21T02:20:45;14.88;;;5.43;;
40339;SDS011;26044;50.864;20.658;2022-08-21T02:23:20;13.05;;;5.60;;
40339;SDS011;26044;50.864;20.658;2022-08-21T02:25:53;13.60;;;5.32;;
40339;SDS011;26044;50.864;20.658;2022-08-21T02:28:21;18.15;;;5.43;;
40339;SDS011;26044;50.864;20.658;2022-08-21T02:30:48;14.93;;;5.85;;
40339;SDS011;26044;50.864;20.658;2022-08-21T02:33:16;13.35;;;5.28;;
40339;SDS011;26044;50.864;20.658;2022-08-21T02:35:45;12.55;;;5.63;;
40339;SDS011;26044;50.864;20.658;2022-08-21T02:38:13;11.93;;;5.70;;
40339;SDS011;26044;50.864;20.658;2022-08-21T02:40:43;18.00;;;6.88;;
40339;SDS011;26044;50.864;20.658;2022-08-21T02:43:16;13.60;;;5.85;;
40339;SDS011;26044;50.864;20.658;2022-08-21T02:45:45;14.82;;;5.95;;
40339;SDS011;26044;50.864;20.658;2022-08-21T02:48:14;18.10;;;6.05;;
40339;SDS011;26044;50.864;20.658;2022-08-21T02:50:46;14.57;;;6.20;;
40339;SDS011;26044;50.864;20.658;2022-08-21T02:53:15;16.75;;;5.40;;
40339;SDS011;26044;50.864;20.658;2022-08-21T02:55:46;12.98;;;5.72;;
40339;SDS011;26044;50.864;20.658;2022-08-21T02:58:16;11.07;;;5.35;;
40339;SDS011;26044;50.864;20.658;2022-08-21T03:00:46;12.98;;;5.72;;
40339;SDS011;26044;50.864;20.658;2022-08-21T03:03:13;13.75;;;5.47;;
40339;SDS011;26044;50.864;20.658;2022-08-21T03:05:41;14.88;;;5.28;;
40339;SDS011;26044;50.864;20.658;2022-08-21T03:08:09;14.18;;;5.88;;
40339;SDS011;26044;50.864;20.658;2022-08-21T03:10:39;12.10;;;5.50;;
40339;SDS011;26044;50.864;20.658;2022-08-21T03:13:07;15.13;;;5.65;;
40339;SDS011;26044;50.864;20.658;2022-08-21T03:15:34;14.40;;;5.88;;
40339;SDS011;26044;50.864;20.658;2022-08-21T03:18:03;15.02;;;6.30;;
40339;SDS011;26044;50.864;20.658;2022-08-21T03:20:31;16.60;;;6.35;;
40339;SDS011;26044;50.864;20.658;2022-08-21T03:22:59;16.17;;;6.35;;
40339;SDS011;26044;50.864;20.658;2022-08-21T03:25:27;13.52;;;5.30;;
40339;SDS011;26044;50.864;20.658;2022-08-21T03:28:07;15.52;;;5.78;;
40339;SDS011;26044;50.864;20.658;2022-08-21T03:30:39;15.20;;;5.78;;
40339;SDS011;26044;50.864;20.658;2022-08-21T03:33:06;17.48;;;6.10;;
40339;SDS011;26044;50.864;20.658;2022-08-21T03:35:33;17.10;;;6.50;;
40339;SDS011;26044;50.864;20.658;2022-08-21T03:38:00;18.15;;;6.60;;
40339;SDS011;26044;50.864;20.658;2022-08-21T03:40:27;16.92;;;6.25;;
40339;SDS011;26044;50.864;20.658;2022-08-21T03:42:54;14.10;;;5.57;;
40339;SDS011;26044;50.864;20.658;2022-08-21T03:45:20;15.07;;;5.82;;
40339;SDS011;26044;50.864;20.658;2022-08-21T03:47:58;20.45;;;6.13;;
40339;SDS011;26044;50.864;20.658;2022-08-21T03:50:27;15.65;;;5.65;;
40339;SDS011;26044;50.864;20.658;2022-08-21T03:52:55;16.20;;;6.43;;
40339;SDS011;26044;50.864;20.658;2022-08-21T03:55:23;11.95;;;5.47;;
40339;SDS011;26044;50.864;20.658;2022-08-21T03:57:51;14.50;;;6.03;;
40339;SDS011;26044;50.864;20.658;2022-08-21T04:00:18;20.50;;;7.78;;
40339;SDS011;26044;50.864;20.658;2022-08-21T04:02:45;16.08;;;5.78;;
40339;SDS011;26044;50.864;20.658;2022-08-21T04:05:14;14.68;;;5.78;;
40339;SDS011;26044;50.864;20.658;2022-08-21T04:07:59;15.90;;;6.35;;
40339;SDS011;26044;50.864;20.658;2022-08-21T04:10:29;13.68;;;5.75;;
40339;SDS011;26044;50.864;20.658;2022-08-21T04:12:58;13.73;;;5.82;;
40339;SDS011;26044;50.864;20.658;2022-08-21T04:15:25;13.10;;;5.65;;
40339;SDS011;26044;50.864;20.658;2022-08-21T04:17:53;11.80;;;5.55;;
40339;SDS011;26044;50.864;20.658;2022-08-21T04:20:21;14.07;;;6.10;;
40339;SDS011;26044;50.864;20.658;2022-08-21T04:22:49;16.52;;;5.97;;
40339;SDS011;26044;50.864;20.658;2022-08-21T04:25:17;15.68;;;6.00;;
40339;SDS011;26044;50.864;20.658;2022-08-21T04:27:46;19.08;;;6.43;;
40339;SDS011;26044;50.864;20.658;2022-08-21T04:30:13;12.82;;;5.72;;
40339;SDS011;26044;50.864;20.658;2022-08-21T04:32:42;18.25;;;6.47;;
40339;SDS011;26044;50.864;20.658;2022-08-21T04:35:10;13.88;;;5.57;;
40339;SDS011;26044;50.864;20.658;2022-08-21T04:37:38;17.85;;;6.47;;
40339;SDS011;26044;50.864;20.658;2022-08-21T04:40:07;15.50;;;6.53;;
40339;SDS011;26044;50.864;20.658;2022-08-21T04:42:41;14.68;;;5.95;;
40339;SDS011;26044;50.864;20.658;2022-08-21T04:45:27;16.35;;;6.05;;
40339;SDS011;26044;50.864;20.658;2022-08-21T04:47:57;15.18;;;6.47;;
40339;SDS011;26044;50.864;20.658;2022-08-21T04:50:49;16.55;;;6.55;;
40339;SDS011;26044;50.864;20.658;2022-08-21T04:53:20;23.13;;;6.90;;
40339;SDS011;26044;50.864;20.658;2022-08-21T04:56:09;20.88;;;7.55;;
40339;SDS011;26044;50.864;20.658;2022-08-21T04:58:42;26.50;;;10.60;;
40339;SDS011;26044;50.864;20.658;2022-08-21T05:01:14;24.52;;;10.80;;
40339;SDS011;26044;50.864;20.658;2022-08-21T05:03:45;24.02;;;9.63;;
40339;SDS011;26044;50.864;20.658;2022-08-21T05:06:15;20.27;;;8.00;;
40339;SDS011;26044;50.864;20.658;2022-08-21T05:08:43;21.23;;;7.97;;
40339;SDS011;26044;50.864;20.658;2022-08-21T05:11:11;23.10;;;8.77;;
40339;SDS011;26044;50.864;20.658;2022-08-21T05:13:39;22.55;;;8.85;;
40339;SDS011;26044;50.864;20.658;2022-08-21T05:16:07;21.00;;;9.18;;
40339;SDS011;26044;50.864;20.658;2022-08-21T05:18:34;20.90;;;8.15;;
40339;SDS011;26044;50.864;20.658;2022-08-21T05:21:01;19.65;;;7.32;;
40339;SDS011;26044;50.864;20.658;2022-08-21T05:23:28;19.58;;;6.80;;
40339;SDS011;26044;50.864;20.658;2022-08-21T05:25:56;16.98;;;6.40;;
40339;SDS011;26044;50.864;20.658;2022-08-21T05:28:24;19.95;;;7.18;;
40339;SDS011;26044;50.864;20.658;2022-08-21T05:30:52;15.65;;;6.10;;
40339;SDS011;26044;50.864;20.658;2022-08-21T05:33:19;19.30;;;7.20;;
40339;SDS011;26044;50.864;20.658;2022-08-21T05:35:48;15.85;;;6.45;;
40339;SDS011;26044;50.864;20.658;2022-08-21T05:38:17;13.88;;;5.55;;
40339;SDS011;26044;50.864;20.658;2022-08-21T05:40:44;13.35;;;5.90;;
40339;SDS011;26044;50.864;20.658;2022-08-21T05:43:12;20.73;;;5.75;;
40339;SDS011;26044;50.864;20.658;2022-08-21T05:45:39;15.75;;;5.85;;
40339;SDS011;26044;50.864;20.658;2022-08-21T05:48:14;15.55;;;5.97;;
40339;SDS011;26044;50.864;20.658;2022-08-21T05:50:44;14.52;;;6.25;;
40339;SDS011;26044;50.864;20.658;2022-08-21T05:53:12;16.60;;;5.88;;
40339;SDS011;26044;50.864;20.658;2022-08-21T05:55:40;16.50;;;5.72;;
40339;SDS011;26044;50.864;20.658;2022-08-21T05:58:11;13.63;;;5.88;;
40339;SDS011;26044;50.864;20.658;2022-08-21T06:00:44;17.30;;;6.15;;
40339;SDS011;26044;50.864;20.658;2022-08-21T06:03:17;15.93;;;6.03;;
40339;SDS011;26044;50.864;20.658;2022-08-21T06:05:49;13.60;;;5.38;;
40339;SDS011;26044;50.864;20.658;2022-08-21T06:08:18;17.40;;;5.88;;
40339;SDS011;26044;50.864;20.658;2022-08-21T06:10:46;15.40;;;5.63;;
40339;SDS011;26044;50.864;20.658;2022-08-21T06:13:14;16.45;;;6.03;;
40339;SDS011;26044;50.864;20.658;2022-08-21T06:15:42;14.68;;;6.50;;
40339;SDS011;26044;50.864;20.658;2022-08-21T06:18:09;16.20;;;5.82;;
40339;SDS011;26044;50.864;20.658;2022-08-21T06:20:36;14.85;;;5.70;;
40339;SDS011;26044;50.864;20.658;2022-08-21T06:23:03;14.65;;;5.85;;
40339;SDS011;26044;50.864;20.658;2022-08-21T06:25:30;16.15;;;5.03;;
40339;SDS011;26044;50.864;20.658;2022-08-21T06:28:01;18.55;;;5.53;;
40339;SDS011;26044;50.864;20.658;2022-08-21T06:30:32;12.38;;;5.28;;
40339;SDS011;26044;50.864;20.658;2022-08-21T06:33:00;18.08;;;6.10;;
40339;SDS011;26044;50.864;20.658;2022-08-21T06:35:28;15.27;;;5.68;;
40339;SDS011;26044;50.864;20.658;2022-08-21T06:37:56;17.90;;;5.95;;
40339;SDS011;26044;50.864;20.658;2022-08-21T06:40:24;13.43;;;5.47;;
40339;SDS011;26044;50.864;20.658;2022-08-21T06:42:55;12.40;;;5.38;;
40339;SDS011;26044;50.864;20.658;2022-08-21T06:45:23;15.68;;;5.97;;
40339;SDS011;26044;50.864;20.658;2022-08-21T06:47:53;16.45;;;5.72;;
40339;SDS011;26044;50.864;20.658;2022-08-21T06:50:20;12.10;;;5.38;;
40339;SDS011;26044;50.864;20.658;2022-08-21T06:52:47;17.35;;;5.13;;
40339;SDS011;26044;50.864;20.658;2022-08-21T06:55:13;16.77;;;5.72;;
40339;SDS011;26044;50.864;20.658;2022-08-21T06:57:46;12.75;;;5.90;;
40339;SDS011;26044;50.864;20.658;2022-08-21T07:00:18;14.45;;;5.88;;
40339;SDS011;26044;50.864;20.658;2022-08-21T07:02:45;14.27;;;4.93;;
40339;SDS011;26044;50.864;20.658;2022-08-21T07:05:12;12.10;;;5.60;;
40339;SDS011;26044;50.864;20.658;2022-08-21T07:07:44;11.23;;;5.57;;
40339;SDS011;26044;50.864;20.658;2022-08-21T07:10:11;14.27;;;6.28;;
40339;SDS011;26044;50.864;20.658;2022-08-21T07:12:47;15.25;;;6.00;;
40339;SDS011;26044;50.864;20.658;2022-08-21T07:15:27;18.33;;;5.38;;
40339;SDS011;26044;50.864;20.658;2022-08-21T07:17:55;18.30;;;5.75;;
40339;SDS011;26044;50.864;20.658;2022-08-21T07:20:23;14.85;;;5.72;;
40339;SDS011;26044;50.864;20.658;2022-08-21T07:22:50;19.13;;;6.05;;
40339;SDS011;26044;50.864;20.658;2022-08-21T07:25:17;15.07;;;5.20;;
40339;SDS011;26044;50.864;20.658;2022-08-21T07:27:43;11.45;;;5.20;;
40339;SDS011;26044;50.864;20.658;2022-08-21T07:30:10;14.27;;;5.25;;
40339;SDS011;26044;50.864;20.658;2022-08-21T07:32:37;13.48;;;5.22;;
40339;SDS011;26044;50.864;20.658;2022-08-21T07:35:04;12.13;;;5.30;;
40339;SDS011;26044;50.864;20.658;2022-08-21T07:37:31;13.63;;;5.85;;
40339;SDS011;26044;50.864;20.658;2022-08-21T07:39:58;12.25;;;5.40;;
40339;SDS011;26044;50.864;20.658;2022-08-21T07:42:25;14.25;;;5.47;;
40339;SDS011;26044;50.864;20.658;2022-08-21T07:44:52;13.85;;;5.55;;
40339;SDS011;26044;50.864;20.658;2022-08-21T07:47:21;13.73;;;5.32;;
40339;SDS011;26044;50.864;20.658;2022-08-21T07:50:08;14.93;;;5.43;;
40339;SDS011;26044;50.864;20.658;2022-08-21T07:52:39;16.25;;;5.63;;
40339;SDS011;26044;50.864;20.658;2022-08-21T07:55:07;17.88;;;6.15;;
40339;SDS011;26044;50.864;20.658;2022-08-21T07:57:36;15.18;;;6.32;;
40339;SDS011;26044;50.864;20.658;2022-08-21T08:00:03;18.65;;;6.53;;
40339;SDS011;26044;50.864;20.658;2022-08-21T08:02:31;15.57;;;5.80;;
40339;SDS011;26044;50.864;20.658;2022-08-21T08:05:08;14.40;;;5.88;;
40339;SDS011;26044;50.864;20.658;2022-08-21T08:07:37;14.02;;;5.97;;
40339;SDS011;26044;50.864;20.658;2022-08-21T08:10:05;20.73;;;6.43;;
40339;SDS011;26044;50.864;20.658;2022-08-21T08:12:34;15.82;;;6.78;;
40339;SDS011;26044;50.864;20.658;2022-08-21T08:15:03;18.92;;;6.68;;
40339;SDS011;26044;50.864;20.658;2022-08-21T08:17:31;19.30;;;6.28;;
40339;SDS011;26044;50.864;20.658;2022-08-21T08:19:58;14.68;;;5.95;;
40339;SDS011;26044;50.864;20.658;2022-08-21T08:22:28;15.50;;;5.90;;
40339;SDS011;26044;50.864;20.658;2022-08-21T08:24:56;14.15;;;5.45;;
40339;SDS011;26044;50.864;20.658;2022-08-21T08:27:23;15.00;;;5.68;;
40339;SDS011;26044;50.864;20.658;2022-08-21T08:29:49;20.42;;;6.60;;
40339;SDS011;26044;50.864;20.658;2022-08-21T08:32:17;16.13;;;5.88;;
40339;SDS011;26044;50.864;20.658;2022-08-21T08:34:55;14.82;;;5.97;;
40339;SDS011;26044;50.864;20.658;2022-08-21T08:37:25;13.80;;;6.03;;
40339;SDS011;26044;50.864;20.658;2022-08-21T08:39:59;14.45;;;6.47;;
40339;SDS011;26044;50.864;20.658;2022-08-21T08:42:32;12.90;;;5.47;;
40339;SDS011;26044;50.864;20.658;2022-08-21T08:45:04;18.90;;;6.20;;
40339;SDS011;26044;50.864;20.658;2022-08-21T08:47:38;18.75;;;6.68;;
40339;SDS011;26044;50.864;20.658;2022-08-21T08:50:13;15.77;;;6.22;;
40339;SDS011;26044;50.864;20.658;2022-08-21T08:52:48;14.57;;;6.10;;
40339;SDS011;26044;50.864;20.658;2022-08-21T08:55:40;15.93;;;5.65;;
40339;SDS011;26044;50.864;20.658;2022-08-21T08:58:10;16.52;;;5.90;;
40339;SDS011;26044;50.864;20.658;2022-08-21T09:00:53;14.60;;;6.22;;
40339;SDS011;26044;50.864;20.658;2022-08-21T09:03:24;14.82;;;6.38;;
40339;SDS011;26044;50.864;20.658;2022-08-21T09:05:58;14.95;;;6.40;;
40339;SDS011;26044;50.864;20.658;2022-08-21T09:08:41;16.70;;;6.50;;
40339;SDS011;26044;50.864;20.658;2022-08-21T09:14:26;16.10;;;6.20;;
40339;SDS011;26044;50.864;20.658;2022-08-21T09:17:13;16.23;;;5.70;;
40339;SDS011;26044;50.864;20.658;2022-08-21T09:28:33;18.13;;;6.97;;
40339;SDS011;26044;50.864;20.658;2022-08-21T09:31:03;13.20;;;5.50;;
40339;SDS011;26044;50.864;20.658;2022-08-21T09:33:32;17.92;;;6.65;;
40339;SDS011;26044;50.864;20.658;2022-08-21T09:35:59;12.50;;;6.30;;
40339;SDS011;26044;50.864;20.658;2022-08-21T09:38:33;14.43;;;5.80;;
40339;SDS011;26044;50.864;20.658;2022-08-21T09:43:31;16.02;;;6.18;;
40339;SDS011;26044;50.864;20.658;2022-08-21T09:46:07;18.30;;;6.68;;
40339;SDS011;26044;50.864;20.658;2022-08-21T09:48:45;11.88;;;5.93;;
40339;SDS011;26044;50.864;20.658;2022-08-21T09:51:15;15.75;;;6.07;;
40339;SDS011;26044;50.864;20.658;2022-08-21T09:53:52;14.52;;;6.20;;
40339;SDS011;26044;50.864;20.658;2022-08-21T09:56:31;15.20;;;6.38;;
40339;SDS011;26044;50.864;20.658;2022-08-21T09:59:29;16.55;;;6.30;;
40339;SDS011;26044;50.864;20.658;2022-08-21T10:02:13;20.42;;;6.53;;
40339;SDS011;26044;50.864;20.658;2022-08-21T10:04:53;17.95;;;6.60;;
40339;SDS011;26044;50.864;20.658;2022-08-21T10:07:23;16.10;;;6.40;;
40339;SDS011;26044;50.864;20.658;2022-08-21T10:10:03;12.73;;;5.53;;
40339;SDS011;26044;50.864;20.658;2022-08-21T10:12:42;15.23;;;6.53;;
40339;SDS011;26044;50.864;20.658;2022-08-21T10:18:18;11.65;;;5.65;;
40339;SDS011;26044;50.864;20.658;2022-08-21T10:28:57;18.67;;;6.50;;
40339;SDS011;26044;50.864;20.658;2022-08-21T10:41:05;14.15;;;6.20;;
40339;SDS011;26044;50.864;20.658;2022-08-21T10:49:14;13.57;;;6.70;;
40339;SDS011;26044;50.864;20.658;2022-08-21T10:54:46;15.40;;;6.70;;
40339;SDS011;26044;50.864;20.658;2022-08-21T10:57:33;19.23;;;6.40;;
40339;SDS011;26044;50.864;20.658;2022-08-21T11:00:15;15.55;;;6.30;;
40339;SDS011;26044;50.864;20.658;2022-08-21T11:03:07;16.85;;;6.35;;
40339;SDS011;26044;50.864;20.658;2022-08-21T11:05:52;14.60;;;5.88;;
40339;SDS011;26044;50.864;20.658;2022-08-21T11:08:33;18.10;;;6.30;;
40339;SDS011;26044;50.864;20.658;2022-08-21T11:13:55;15.90;;;6.18;;
40339;SDS011;26044;50.864;20.658;2022-08-21T11:16:33;15.90;;;5.90;;
40339;SDS011;26044;50.864;20.658;2022-08-21T11:21:49;13.20;;;5.53;;
40339;SDS011;26044;50.864;20.658;2022-08-21T11:24:35;12.38;;;5.53;;
40339;SDS011;26044;50.864;20.658;2022-08-21T11:27:23;12.82;;;5.88;;
40339;SDS011;26044;50.864;20.658;2022-08-21T11:29:57;13.80;;;5.88;;
40339;SDS011;26044;50.864;20.658;2022-08-21T11:40:31;13.90;;;5.80;;
40339;SDS011;26044;50.864;20.658;2022-08-21T11:43:22;12.95;;;5.78;;
40339;SDS011;26044;50.864;20.658;2022-08-21T11:46:23;14.95;;;5.78;;
40339;SDS011;26044;50.864;20.658;2022-08-21T11:51:49;11.70;;;5.43;;
40339;SDS011;26044;50.864;20.658;2022-08-21T11:55:08;14.00;;;5.88;;
40339;SDS011;26044;50.864;20.658;2022-08-21T12:00:22;15.20;;;6.50;;
40339;SDS011;26044;50.864;20.658;2022-08-21T12:02:58;12.57;;;5.93;;
40339;SDS011;26044;50.864;20.658;2022-08-21T12:05:54;14.60;;;5.30;;
40339;SDS011;26044;50.864;20.658;2022-08-21T12:08:33;9.13;;;5.30;;
40339;SDS011;26044;50.864;20.658;2022-08-21T12:11:26;14.88;;;5.60;;
40339;SDS011;26044;50.864;20.658;2022-08-21T12:14:00;15.02;;;5.43;;
40339;SDS011;26044;50.864;20.658;2022-08-21T12:16:40;13.10;;;5.57;;
40339;SDS011;26044;50.864;20.658;2022-08-21T12:19:09;12.55;;;5.95;;
40339;SDS011;26044;50.864;20.658;2022-08-21T12:24:37;16.27;;;6.40;;
40339;SDS011;26044;50.864;20.658;2022-08-21T12:29:48;23.95;;;10.90;;
40339;SDS011;26044;50.864;20.658;2022-08-21T12:34:48;13.02;;;6.20;;
40339;SDS011;26044;50.864;20.658;2022-08-21T12:37:25;14.05;;;5.53;;
40339;SDS011;26044;50.864;20.658;2022-08-21T12:40:00;19.20;;;5.40;;
40339;SDS011;26044;50.864;20.658;2022-08-21T12:45:22;13.43;;;6.38;;
40339;SDS011;26044;50.864;20.658;2022-08-21T12:50:51;18.85;;;5.78;;
40339;SDS011;26044;50.864;20.658;2022-08-21T12:53:49;12.52;;;5.43;;
40339;SDS011;26044;50.864;20.658;2022-08-21T12:56:24;19.10;;;6.03;;
40339;SDS011;26044;50.864;20.658;2022-08-21T12:58:54;9.25;;;5.15;;
40339;SDS011;26044;50.864;20.658;2022-08-21T13:01:25;14.40;;;5.75;;
40339;SDS011;26044;50.864;20.658;2022-08-21T13:03:58;15.15;;;6.00;;
40339;SDS011;26044;50.864;20.658;2022-08-21T13:06:36;11.30;;;5.68;;
40339;SDS011;26044;50.864;20.658;2022-08-21T13:09:11;13.43;;;5.40;;
40339;SDS011;26044;50.864;20.658;2022-08-21T13:11:41;11.00;;;5.53;;
40339;SDS011;26044;50.864;20.658;2022-08-21T13:14:17;11.32;;;5.22;;
40339;SDS011;26044;50.864;20.658;2022-08-21T13:17:11;20.00;;;6.03;;
40339;SDS011;26044;50.864;20.658;2022-08-21T13:19:52;14.52;;;5.75;;
40339;SDS011;26044;50.864;20.658;2022-08-21T13:22:27;18.60;;;6.05;;
40339;SDS011;26044;50.864;20.658;2022-08-21T13:25:00;13.18;;;5.57;;
40339;SDS011;26044;50.864;20.658;2022-08-21T13:27:32;14.07;;;5.47;;
40339;SDS011;26044;50.864;20.658;2022-08-21T13:30:01;14.77;;;5.80;;
40339;SDS011;26044;50.864;20.658;2022-08-21T13:32:29;11.82;;;5.43;;
40339;SDS011;26044;50.864;20.658;2022-08-21T13:34:58;13.65;;;6.53;;
40339;SDS011;26044;50.864;20.658;2022-08-21T13:37:33;12.57;;;5.40;;
40339;SDS011;26044;50.864;20.658;2022-08-21T13:40:01;11.30;;;5.82;;
40339;SDS011;26044;50.864;20.658;2022-08-21T13:42:32;13.13;;;5.05;;
40339;SDS011;26044;50.864;20.658;2022-08-21T13:44:59;12.45;;;5.22;;
40339;SDS011;26044;50.864;20.658;2022-08-21T13:47:28;18.27;;;5.63;;
40339;SDS011;26044;50.864;20.658;2022-08-21T13:49:56;11.27;;;4.97;;
40339;SDS011;26044;50.864;20.658;2022-08-21T13:52:25;9.90;;;5.28;;
40339;SDS011;26044;50.864;20.658;2022-08-21T13:54:56;15.98;;;4.82;;
40339;SDS011;26044;50.864;20.658;2022-08-21T13:57:29;9.68;;;4.38;;
40339;SDS011;26044;50.864;20.658;2022-08-21T14:02:47;10.85;;;4.43;;
40339;SDS011;26044;50.864;20.658;2022-08-21T14:05:37;10.57;;;4.78;;
40339;SDS011;26044;50.864;20.658;2022-08-21T14:08:12;12.68;;;4.65;;
40339;SDS011;26044;50.864;20.658;2022-08-21T14:13:21;12.95;;;4.75;;
40339;SDS011;26044;50.864;20.658;2022-08-21T14:16:10;10.43;;;4.47;;
40339;SDS011;26044;50.864;20.658;2022-08-21T14:18:47;8.07;;;3.85;;
40339;SDS011;26044;50.864;20.658;2022-08-21T14:21:24;8.80;;;3.90;;
40339;SDS011;26044;50.864;20.658;2022-08-21T14:24:02;10.82;;;4.55;;
40339;SDS011;26044;50.864;20.658;2022-08-21T14:26:35;9.48;;;4.32;;
40339;SDS011;26044;50.864;20.658;2022-08-21T14:29:06;10.25;;;4.28;;
40339;SDS011;26044;50.864;20.658;2022-08-21T14:31:35;8.55;;;4.07;;
40339;SDS011;26044;50.864;20.658;2022-08-21T14:34:09;10.38;;;4.07;;
40339;SDS011;26044;50.864;20.658;2022-08-21T14:36:44;9.13;;;4.20;;
40339;SDS011;26044;50.864;20.658;2022-08-21T14:39:13;10.48;;;4.07;;
40339;SDS011;26044;50.864;20.658;2022-08-21T14:41:39;9.38;;;4.30;;
40339;SDS011;26044;50.864;20.658;2022-08-21T14:44:08;11.97;;;4.43;;
40339;SDS011;26044;50.864;20.658;2022-08-21T14:46:36;11.48;;;4.07;;
40339;SDS011;26044;50.864;20.658;2022-08-21T14:49:21;8.63;;;3.90;;
40339;SDS011;26044;50.864;20.658;2022-08-21T14:51:54;10.00;;;4.65;;
40339;SDS011;26044;50.864;20.658;2022-08-21T14:54:27;13.35;;;4.90;;
40339;SDS011;26044;50.864;20.658;2022-08-21T14:57:00;9.82;;;3.90;;
40339;SDS011;26044;50.864;20.658;2022-08-21T14:59:29;15.25;;;4.57;;
40339;SDS011;26044;50.864;20.658;2022-08-21T15:01:58;14.25;;;5.18;;
40339;SDS011;26044;50.864;20.658;2022-08-21T15:04:25;12.70;;;4.32;;
40339;SDS011;26044;50.864;20.658;2022-08-21T15:06:52;10.35;;;4.05;;
40339;SDS011;26044;50.864;20.658;2022-08-21T15:09:19;13.43;;;5.13;;
40339;SDS011;26044;50.864;20.658;2022-08-21T15:11:46;11.52;;;4.65;;
40339;SDS011;26044;50.864;20.658;2022-08-21T15:14:20;14.18;;;5.13;;
40339;SDS011;26044;50.864;20.658;2022-08-21T15:16:48;10.68;;;4.63;;
40339;SDS011;26044;50.864;20.658;2022-08-21T15:19:16;9.48;;;4.47;;
40339;SDS011;26044;50.864;20.658;2022-08-21T15:21:43;12.07;;;4.68;;
40339;SDS011;26044;50.864;20.658;2022-08-21T15:24:10;12.15;;;4.40;;
40339;SDS011;26044;50.864;20.658;2022-08-21T15:26:36;9.27;;;3.97;;
40339;SDS011;26044;50.864;20.658;2022-08-21T15:29:04;10.57;;;4.70;;
40339;SDS011;26044;50.864;20.658;2022-08-21T15:31:34;8.65;;;4.78;;
40339;SDS011;26044;50.864;20.658;2022-08-21T15:34:01;10.88;;;5.00;;
40339;SDS011;26044;50.864;20.658;2022-08-21T15:36:29;7.65;;;4.07;;
40339;SDS011;26044;50.864;20.658;2022-08-21T15:38:55;7.85;;;3.97;;
40339;SDS011;26044;50.864;20.658;2022-08-21T15:41:22;7.00;;;3.97;;
40339;SDS011;26044;50.864;20.658;2022-08-21T15:43:50;11.43;;;4.28;;
40339;SDS011;26044;50.864;20.658;2022-08-21T15:46:18;11.60;;;4.30;;
40339;SDS011;26044;50.864;20.658;2022-08-21T15:48:45;13.05;;;4.28;;
40339;SDS011;26044;50.864;20.658;2022-08-21T15:51:13;11.43;;;4.65;;
40339;SDS011;26044;50.864;20.658;2022-08-21T15:53:41;12.43;;;4.50;;
40339;SDS011;26044;50.864;20.658;2022-08-21T15:56:14;6.68;;;4.20;;
40339;SDS011;26044;50.864;20.658;2022-08-21T15:58:50;9.65;;;4.18;;
40339;SDS011;26044;50.864;20.658;2022-08-21T16:01:19;12.57;;;4.60;;
40339;SDS011;26044;50.864;20.658;2022-08-21T16:03:48;9.10;;;4.53;;
40339;SDS011;26044;50.864;20.658;2022-08-21T16:06:18;9.05;;;4.35;;
40339;SDS011;26044;50.864;20.658;2022-08-21T16:09:03;13.32;;;5.25;;
40339;SDS011;26044;50.864;20.658;2022-08-21T16:11:30;13.73;;;5.88;;
40339;SDS011;26044;50.864;20.658;2022-08-21T16:13:58;12.00;;;4.88;;